PFCL

Details ICAO PFCL
Name Clarks Point
Region USA (Alaska)
Timezone America/Anchorage (UTC-9.0)
Plans Departing 2
Arriving 1
Stats Elevation 10 ft / 3 m (AMSL)
Location 58.842305° -158.545233°
Runways 1
Magnetic Variation 12.733° E
Sunrise 2017-12-10 19:17:01 UTC / 2017-12-10 10:17:01 Local
Sunset 2017-12-11 01:40:16 UTC / 2017-12-10 16:40:16 Local
Advertisement - Login to hide

Runways

ID Width Length Bearing (true) Bearing (mag) Surface Threshold Offset Overrun Length
08 85 ft / 26 m 2,602 ft / 793 m 99.99° 87.26° Gravel 0 ft / 0 m 0 ft / 0 m
26 85 ft / 26 m 2,602 ft / 793 m 280.01° 267.28° Gravel 0 ft / 0 m 0 ft / 0 m

Map

Weather


0- 5 10 15 20 25 30 35+ Temperature / ° C

Clouds and Precipitation
Forecast for 2017-12-11 12:00 UTC. Updated 29 minutes ago

Ground ~20,000 ft ~40,000 ft Winds

METAR

PFCL 110656Z AUTO 01023G29KT 10SM OVC050 01/M01 A2887 RMK AO2 PK WND 01032/0622 SLPNO T00111006 FZRANO TSNO

TAF

Not found
Warning: Do not use this data for real-world aviation or navigation. No guarantee of current accuracy is given.